sensor_id;sensor_type;location;lat;lon;timestamp;P1;P2;P0
46302;PMS7003;32029;51.358;5.628;2023-12-22T00:02:03;2.33;1.00;0.00
46302;PMS7003;32029;51.358;5.628;2023-12-22T00:04:33;0.00;0.00;0.00
46302;PMS7003;32029;51.358;5.628;2023-12-22T00:07:00;5.00;0.00;0.00
46302;PMS7003;32029;51.358;5.628;2023-12-22T00:09:30;0.00;0.00;0.00
46302;PMS7003;32029;51.358;5.628;2023-12-22T00:11:56;5.00;1.00;1.00
46302;PMS7003;32029;51.358;5.628;2023-12-22T00:14:23;4.33;0.00;0.00
46302;PMS7003;32029;51.358;5.628;2023-12-22T00:16:51;2.33;1.00;0.00
46302;PMS7003;32029;51.358;5.628;2023-12-22T00:19:18;1.33;0.00;0.00
46302;PMS7003;32029;51.358;5.628;2023-12-22T00:21:44;1.00;1.00;1.00
46302;PMS7003;32029;51.358;5.628;2023-12-22T00:24:11;1.00;1.00;1.00
46302;PMS7003;32029;51.358;5.628;2023-12-22T00:26:37;2.00;2.00;1.67
46302;PMS7003;32029;51.358;5.628;2023-12-22T00:29:04;2.33;1.00;0.33
46302;PMS7003;32029;51.358;5.628;2023-12-22T00:31:31;3.00;0.67;0.67
46302;PMS7003;32029;51.358;5.628;2023-12-22T00:33:58;3.00;2.00;2.00
46302;PMS7003;32029;51.358;5.628;2023-12-22T00:36:24;3.67;2.33;1.00
46302;PMS7003;32029;51.358;5.628;2023-12-22T00:38:51;4.67;2.67;1.33
46302;PMS7003;32029;51.358;5.628;2023-12-22T00:41:19;1.00;1.00;1.00
46302;PMS7003;32029;51.358;5.628;2023-12-22T00:43:46;2.00;2.00;2.00
46302;PMS7003;32029;51.358;5.628;2023-12-22T00:46:13;2.00;2.00;2.00
46302;PMS7003;32029;51.358;5.628;2023-12-22T00:48:40;4.67;2.00;1.00
46302;PMS7003;32029;51.358;5.628;2023-12-22T00:51:06;2.00;1.00;0.00
46302;PMS7003;32029;51.358;5.628;2023-12-22T00:53:36;2.67;0.00;0.00
46302;PMS7003;32029;51.358;5.628;2023-12-22T00:56:03;1.00;1.00;0.00
46302;PMS7003;32029;51.358;5.628;2023-12-22T00:58:30;6.00;2.00;1.00
46302;PMS7003;32029;51.358;5.628;2023-12-22T01:00:56;3.00;1.67;1.00
46302;PMS7003;32029;51.358;5.628;2023-12-22T01:03:23;2.00;1.00;0.00
46302;PMS7003;32029;51.358;5.628;2023-12-22T01:05:50;2.67;1.00;1.00
46302;PMS7003;32029;51.358;5.628;2023-12-22T01:08:16;1.00;1.00;1.00
46302;PMS7003;32029;51.358;5.628;2023-12-22T01:10:43;7.33;1.33;1.00
46302;PMS7003;32029;51.358;5.628;2023-12-22T01:13:10;7.00;2.00;1.33
46302;PMS7003;32029;51.358;5.628;2023-12-22T01:15:37;8.33;3.00;1.33
46302;PMS7003;32029;51.358;5.628;2023-12-22T01:18:03;1.67;1.67;0.67
46302;PMS7003;32029;51.358;5.628;2023-12-22T01:20:30;4.00;1.00;1.00
46302;PMS7003;32029;51.358;5.628;2023-12-22T01:22:57;1.00;1.00;1.00
46302;PMS7003;32029;51.358;5.628;2023-12-22T01:25:23;2.00;1.00;1.00
46302;PMS7003;32029;51.358;5.628;2023-12-22T01:27:50;6.67;1.33;1.00
46302;PMS7003;32029;51.358;5.628;2023-12-22T01:30:18;1.00;1.00;1.00
46302;PMS7003;32029;51.358;5.628;2023-12-22T01:32:45;1.00;1.00;1.00
46302;PMS7003;32029;51.358;5.628;2023-12-22T01:35:12;2.00;0.00;0.00
46302;PMS7003;32029;51.358;5.628;2023-12-22T01:37:39;2.00;0.67;0.00
46302;PMS7003;32029;51.358;5.628;2023-12-22T01:40:06;1.00;1.00;1.00
46302;PMS7003;32029;51.358;5.628;2023-12-22T01:42:33;5.33;3.00;1.00
46302;PMS7003;32029;51.358;5.628;2023-12-22T01:45:00;1.00;1.00;1.00
46302;PMS7003;32029;51.358;5.628;2023-12-22T01:47:27;1.00;1.00;0.00
46302;PMS7003;32029;51.358;5.628;2023-12-22T01:49:54;2.00;1.00;1.00
46302;PMS7003;32029;51.358;5.628;2023-12-22T01:52:20;2.00;1.00;1.00
46302;PMS7003;32029;51.358;5.628;2023-12-22T01:54:49;2.33;1.00;1.00
46302;PMS7003;32029;51.358;5.628;2023-12-22T01:57:16;5.00;1.67;1.00
46302;PMS7003;32029;51.358;5.628;2023-12-22T01:59:45;2.33;2.00;1.00
46302;PMS7003;32029;51.358;5.628;2023-12-22T02:02:15;6.33;0.67;0.33
46302;PMS7003;32029;51.358;5.628;2023-12-22T02:04:45;7.00;2.20;1.80
46302;PMS7003;32029;51.358;5.628;2023-12-22T02:07:13;1.33;1.33;1.00
46302;PMS7003;32029;51.358;5.628;2023-12-22T02:09:40;2.33;1.00;0.67
46302;PMS7003;32029;51.358;5.628;2023-12-22T02:12:07;3.67;1.67;1.00
46302;PMS7003;32029;51.358;5.628;2023-12-22T02:14:33;0.33;0.00;0.00
46302;PMS7003;32029;51.358;5.628;2023-12-22T02:22:05;1.67;1.67;1.00
46302;PMS7003;32029;51.358;5.628;2023-12-22T02:24:32;5.67;2.67;1.33
46302;PMS7003;32029;51.358;5.628;2023-12-22T02:27:03;2.00;1.33;0.67
46302;PMS7003;32029;51.358;5.628;2023-12-22T02:29:32;3.00;2.00;1.00
46302;PMS7003;32029;51.358;5.628;2023-12-22T02:32:07;4.33;2.33;2.00
46302;PMS7003;32029;51.358;5.628;2023-12-22T02:34:40;5.33;1.00;1.00
46302;PMS7003;32029;51.358;5.628;2023-12-22T02:37:09;4.33;1.33;1.00
46302;PMS7003;32029;51.358;5.628;2023-12-22T02:39:37;2.00;1.00;0.00
46302;PMS7003;32029;51.358;5.628;2023-12-22T02:42:04;2.33;0.00;0.00
46302;PMS7003;32029;51.358;5.628;2023-12-22T02:44:32;5.00;1.67;1.00
46302;PMS7003;32029;51.358;5.628;2023-12-22T02:47:00;7.80;2.00;1.00
46302;PMS7003;32029;51.358;5.628;2023-12-22T02:49:26;1.00;1.00;0.00
46302;PMS7003;32029;51.358;5.628;2023-12-22T02:51:53;1.00;1.00;0.00
46302;PMS7003;32029;51.358;5.628;2023-12-22T02:54:20;5.33;1.00;0.67
46302;PMS7003;32029;51.358;5.628;2023-12-22T02:56:47;3.00;1.00;0.00
46302;PMS7003;32029;51.358;5.628;2023-12-22T02:59:14;2.00;1.00;1.00
46302;PMS7003;32029;51.358;5.628;2023-12-22T03:01:40;1.33;0.00;0.00
46302;PMS7003;32029;51.358;5.628;2023-12-22T03:04:07;1.00;1.00;0.00
46302;PMS7003;32029;51.358;5.628;2023-12-22T03:06:34;2.00;1.00;1.00
46302;PMS7003;32029;51.358;5.628;2023-12-22T03:09:00;11.67;1.00;0.67
46302;PMS7003;32029;51.358;5.628;2023-12-22T03:11:27;1.00;1.00;1.00
46302;PMS7003;32029;51.358;5.628;2023-12-22T03:13:54;8.33;4.33;2.00
46302;PMS7003;32029;51.358;5.628;2023-12-22T03:16:21;2.67;1.00;0.33
46302;PMS7003;32029;51.358;5.628;2023-12-22T03:18:47;5.00;1.00;1.00
46302;PMS7003;32029;51.358;5.628;2023-12-22T03:21:20;5.33;2.00;1.67
46302;PMS7003;32029;51.358;5.628;2023-12-22T03:23:47;5.00;2.00;0.33
46302;PMS7003;32029;51.358;5.628;2023-12-22T03:26:13;1.33;1.33;1.00
46302;PMS7003;32029;51.358;5.628;2023-12-22T03:28:40;4.33;1.00;0.67
46302;PMS7003;32029;51.358;5.628;2023-12-22T03:31:07;4.33;2.00;1.00
46302;PMS7003;32029;51.358;5.628;2023-12-22T03:33:33;1.00;1.00;0.00
46302;PMS7003;32029;51.358;5.628;2023-12-22T03:36:00;2.33;1.67;0.00
46302;PMS7003;32029;51.358;5.628;2023-12-22T03:38:28;2.33;2.00;1.00
46302;PMS7003;32029;51.358;5.628;2023-12-22T03:40:54;1.33;1.33;1.00
46302;PMS7003;32029;51.358;5.628;2023-12-22T03:43:22;2.00;1.00;1.00
46302;PMS7003;32029;51.358;5.628;2023-12-22T03:45:50;3.00;1.33;0.67
46302;PMS7003;32029;51.358;5.628;2023-12-22T03:48:17;6.00;0.80;0.00
46302;PMS7003;32029;51.358;5.628;2023-12-22T03:50:44;1.33;1.00;1.00
46302;PMS7003;32029;51.358;5.628;2023-12-22T03:53:11;2.33;1.33;1.00
46302;PMS7003;32029;51.358;5.628;2023-12-22T03:55:38;3.00;1.00;0.00
46302;PMS7003;32029;51.358;5.628;2023-12-22T03:58:04;1.00;1.00;1.00
46302;PMS7003;32029;51.358;5.628;2023-12-22T04:00:34;7.67;2.67;1.00
46302;PMS7003;32029;51.358;5.628;2023-12-22T04:03:01;3.00;2.67;0.67
46302;PMS7003;32029;51.358;5.628;2023-12-22T04:05:28;1.00;1.00;0.00
46302;PMS7003;32029;51.358;5.628;2023-12-22T04:07:57;1.00;0.00;0.00
46302;PMS7003;32029;51.358;5.628;2023-12-22T04:10:24;0.67;0.33;0.00
46302;PMS7003;32029;51.358;5.628;2023-12-22T04:12:51;1.00;1.00;0.67
46302;PMS7003;32029;51.358;5.628;2023-12-22T04:15:18;3.00;1.00;1.00
46302;PMS7003;32029;51.358;5.628;2023-12-22T04:17:45;1.00;1.00;1.00
46302;PMS7003;32029;51.358;5.628;2023-12-22T04:20:12;2.00;1.00;0.00
46302;PMS7003;32029;51.358;5.628;2023-12-22T04:22:39;2.33;1.00;0.33
46302;PMS7003;32029;51.358;5.628;2023-12-22T04:25:07;3.00;2.00;1.00
46302;PMS7003;32029;51.358;5.628;2023-12-22T04:27:34;2.00;1.00;0.67
46302;PMS7003;32029;51.358;5.628;2023-12-22T04:30:01;2.67;1.00;1.00
46302;PMS7003;32029;51.358;5.628;2023-12-22T04:32:28;7.33;3.00;1.00
46302;PMS7003;32029;51.358;5.628;2023-12-22T04:34:55;5.00;2.00;1.00
46302;PMS7003;32029;51.358;5.628;2023-12-22T04:37:22;5.33;2.00;1.00
46302;PMS7003;32029;51.358;5.628;2023-12-22T04:39:50;4.00;0.00;0.00
46302;PMS7003;32029;51.358;5.628;2023-12-22T04:42:17;5.33;1.33;1.00
46302;PMS7003;32029;51.358;5.628;2023-12-22T04:44:44;1.00;1.00;1.00
46302;PMS7003;32029;51.358;5.628;2023-12-22T04:47:11;4.00;2.00;2.00
46302;PMS7003;32029;51.358;5.628;2023-12-22T04:49:44;4.33;3.00;1.33
46302;PMS7003;32029;51.358;5.628;2023-12-22T04:52:11;7.33;2.00;1.67
46302;PMS7003;32029;51.358;5.628;2023-12-22T04:54:38;1.00;1.00;1.00
46302;PMS7003;32029;51.358;5.628;2023-12-22T04:57:05;7.33;3.00;1.33
46302;PMS7003;32029;51.358;5.628;2023-12-22T04:59:32;3.00;1.00;0.00
46302;PMS7003;32029;51.358;5.628;2023-12-22T05:01:58;3.00;2.00;1.00
46302;PMS7003;32029;51.358;5.628;2023-12-22T05:04:25;3.00;0.00;0.00
46302;PMS7003;32029;51.358;5.628;2023-12-22T05:06:52;2.00;0.33;0.00
46302;PMS7003;32029;51.358;5.628;2023-12-22T05:09:18;3.33;1.00;0.00
46302;PMS7003;32029;51.358;5.628;2023-12-22T05:11:45;2.33;2.33;1.00
46302;PMS7003;32029;51.358;5.628;2023-12-22T05:14:13;7.33;2.00;1.00
46302;PMS7003;32029;51.358;5.628;2023-12-22T05:16:41;2.60;2.60;1.00
46302;PMS7003;32029;51.358;5.628;2023-12-22T05:19:07;4.00;1.67;0.00
46302;PMS7003;32029;51.358;5.628;2023-12-22T05:21:35;1.67;1.00;1.00
46302;PMS7003;32029;51.358;5.628;2023-12-22T05:24:01;2.00;0.33;0.00
46302;PMS7003;32029;51.358;5.628;2023-12-22T05:26:29;2.00;1.00;0.00
46302;PMS7003;32029;51.358;5.628;2023-12-22T05:28:56;2.33;1.00;1.00
46302;PMS7003;32029;51.358;5.628;2023-12-22T05:31:23;4.67;4.67;2.00
46302;PMS7003;32029;51.358;5.628;2023-12-22T05:33:50;7.00;4.00;1.00
46302;PMS7003;32029;51.358;5.628;2023-12-22T05:36:18;2.40;1.00;0.80
46302;PMS7003;32029;51.358;5.628;2023-12-22T05:38:46;4.67;4.67;1.67
46302;PMS7003;32029;51.358;5.628;2023-12-22T05:41:14;2.00;1.00;1.00
46302;PMS7003;32029;51.358;5.628;2023-12-22T05:43:41;2.00;1.00;0.60
46302;PMS7003;32029;51.358;5.628;2023-12-22T05:46:09;4.33;2.33;2.00
46302;PMS7003;32029;51.358;5.628;2023-12-22T05:48:36;2.67;2.00;1.33
46302;PMS7003;32029;51.358;5.628;2023-12-22T05:51:03;0.33;0.00;0.00
46302;PMS7003;32029;51.358;5.628;2023-12-22T05:53:33;7.33;6.00;2.33
46302;PMS7003;32029;51.358;5.628;2023-12-22T05:56:01;2.00;2.00;2.00
46302;PMS7003;32029;51.358;5.628;2023-12-22T05:58:29;7.00;5.33;2.00
46302;PMS7003;32029;51.358;5.628;2023-12-22T06:00:56;4.67;3.00;1.67
46302;PMS7003;32029;51.358;5.628;2023-12-22T06:03:22;6.33;2.00;2.00
46302;PMS7003;32029;51.358;5.628;2023-12-22T06:05:49;6.00;5.33;2.33
46302;PMS7003;32029;51.358;5.628;2023-12-22T06:08:16;8.67;2.00;2.00
46302;PMS7003;32029;51.358;5.628;2023-12-22T06:10:43;5.00;1.00;1.00
46302;PMS7003;32029;51.358;5.628;2023-12-22T06:13:10;5.00;3.00;2.00
46302;PMS7003;32029;51.358;5.628;2023-12-22T06:15:37;6.33;2.67;2.00
46302;PMS7003;32029;51.358;5.628;2023-12-22T06:18:04;8.00;3.00;1.33
46302;PMS7003;32029;51.358;5.628;2023-12-22T06:20:31;6.00;3.00;2.00
46302;PMS7003;32029;51.358;5.628;2023-12-22T06:22:57;7.00;4.33;3.00
46302;PMS7003;32029;51.358;5.628;2023-12-22T06:25:24;7.00;3.00;2.00
46302;PMS7003;32029;51.358;5.628;2023-12-22T06:27:51;5.67;1.67;1.00
46302;PMS7003;32029;51.358;5.628;2023-12-22T06:30:19;10.40;5.80;2.00
46302;PMS7003;32029;51.358;5.628;2023-12-22T06:32:45;3.00;3.00;2.00
46302;PMS7003;32029;51.358;5.628;2023-12-22T06:35:12;12.33;5.67;1.67
46302;PMS7003;32029;51.358;5.628;2023-12-22T06:37:39;5.67;3.00;1.67
46302;PMS7003;32029;51.358;5.628;2023-12-22T06:40:10;9.20;4.40;2.00
46302;PMS7003;32029;51.358;5.628;2023-12-22T06:42:38;3.80;3.00;1.40
46302;PMS7003;32029;51.358;5.628;2023-12-22T06:45:05;3.00;2.00;1.00
46302;PMS7003;32029;51.358;5.628;2023-12-22T06:47:32;2.33;2.33;0.00
46302;PMS7003;32029;51.358;5.628;2023-12-22T06:49:59;6.67;5.33;3.00
46302;PMS7003;32029;51.358;5.628;2023-12-22T06:52:26;5.67;4.33;1.00
46302;PMS7003;32029;51.358;5.628;2023-12-22T06:54:53;7.00;6.00;3.00
46302;PMS7003;32029;51.358;5.628;2023-12-22T06:57:20;8.40;6.20;2.00
46302;PMS7003;32029;51.358;5.628;2023-12-22T06:59:47;7.00;4.67;2.00
46302;PMS7003;32029;51.358;5.628;2023-12-22T07:02:17;10.00;4.67;3.33
46302;PMS7003;32029;51.358;5.628;2023-12-22T07:05:03;11.67;7.67;4.67
46302;PMS7003;32029;51.358;5.628;2023-12-22T07:07:49;5.67;5.33;1.67
46302;PMS7003;32029;51.358;5.628;2023-12-22T07:10:19;7.00;2.80;2.00
46302;PMS7003;32029;51.358;5.628;2023-12-22T07:12:47;6.60;5.60;3.20
46302;PMS7003;32029;51.358;5.628;2023-12-22T07:15:14;8.40;6.40;2.00
46302;PMS7003;32029;51.358;5.628;2023-12-22T07:17:41;7.00;4.00;2.00
46302;PMS7003;32029;51.358;5.628;2023-12-22T07:20:09;14.33;6.67;2.00
46302;PMS7003;32029;51.358;5.628;2023-12-22T07:22:36;7.67;4.67;2.67
46302;PMS7003;32029;51.358;5.628;2023-12-22T07:25:03;7.67;6.33;2.00
46302;PMS7003;32029;51.358;5.628;2023-12-22T07:27:30;9.67;6.00;2.67
46302;PMS7003;32029;51.358;5.628;2023-12-22T07:29:57;6.00;3.20;1.80
46302;PMS7003;32029;51.358;5.628;2023-12-22T07:32:24;6.00;3.33;2.33
46302;PMS7003;32029;51.358;5.628;2023-12-22T07:34:51;10.00;2.67;2.00
46302;PMS7003;32029;51.358;5.628;2023-12-22T07:37:18;9.67;2.00;1.00
46302;PMS7003;32029;51.358;5.628;2023-12-22T07:39:45;3.00;3.00;2.67
46302;PMS7003;32029;51.358;5.628;2023-12-22T07:42:12;9.00;4.00;2.67
46302;PMS7003;32029;51.358;5.628;2023-12-22T07:44:40;11.40;5.20;2.40
46302;PMS7003;32029;51.358;5.628;2023-12-22T07:47:08;6.60;3.20;2.00
46302;PMS7003;32029;51.358;5.628;2023-12-22T07:49:36;7.00;3.00;0.00
46302;PMS7003;32029;51.358;5.628;2023-12-22T07:52:03;7.67;3.33;2.00
46302;PMS7003;32029;51.358;5.628;2023-12-22T07:54:31;7.20;2.00;1.00
46302;PMS7003;32029;51.358;5.628;2023-12-22T07:56:58;8.33;2.67;1.67
46302;PMS7003;32029;51.358;5.628;2023-12-22T07:59:25;4.33;3.67;2.67
46302;PMS7003;32029;51.358;5.628;2023-12-22T08:01:52;6.33;2.00;1.67
46302;PMS7003;32029;51.358;5.628;2023-12-22T08:04:19;3.80;1.20;0.00
46302;PMS7003;32029;51.358;5.628;2023-12-22T08:06:46;4.67;3.33;1.67
46302;PMS7003;32029;51.358;5.628;2023-12-22T08:09:13;4.00;4.00;2.00
46302;PMS7003;32029;51.358;5.628;2023-12-22T08:11:40;4.00;1.67;1.00
46302;PMS7003;32029;51.358;5.628;2023-12-22T08:14:06;6.67;2.33;2.33
46302;PMS7003;32029;51.358;5.628;2023-12-22T08:16:33;3.33;3.00;2.00
46302;PMS7003;32029;51.358;5.628;2023-12-22T08:19:00;10.33;4.00;2.00
46302;PMS7003;32029;51.358;5.628;2023-12-22T08:21:27;8.33;6.00;2.00
46302;PMS7003;32029;51.358;5.628;2023-12-22T08:23:53;3.00;1.00;1.00
46302;PMS7003;32029;51.358;5.628;2023-12-22T08:26:21;2.67;2.33;2.00
46302;PMS7003;32029;51.358;5.628;2023-12-22T08:28:48;7.67;3.00;1.00
46302;PMS7003;32029;51.358;5.628;2023-12-22T08:31:16;3.40;2.80;1.40
46302;PMS7003;32029;51.358;5.628;2023-12-22T08:33:44;2.40;2.00;1.00
46302;PMS7003;32029;51.358;5.628;2023-12-22T08:36:11;4.00;3.33;1.33
46302;PMS7003;32029;51.358;5.628;2023-12-22T08:38:38;3.67;1.33;1.00
46302;PMS7003;32029;51.358;5.628;2023-12-22T08:41:07;0.33;0.33;0.33
46302;PMS7003;32029;51.358;5.628;2023-12-22T08:43:34;2.00;2.00;1.00
46302;PMS7003;32029;51.358;5.628;2023-12-22T08:46:01;3.00;2.00;1.00
46302;PMS7003;32029;51.358;5.628;2023-12-22T08:48:27;2.67;1.67;1.00
46302;PMS7003;32029;51.358;5.628;2023-12-22T08:50:54;2.00;1.00;0.00
46302;PMS7003;32029;51.358;5.628;2023-12-22T08:53:21;0.00;0.00;0.00
46302;PMS7003;32029;51.358;5.628;2023-12-22T08:55:47;3.33;2.00;1.00
46302;PMS7003;32029;51.358;5.628;2023-12-22T08:58:14;1.33;0.33;0.00
46302;PMS7003;32029;51.358;5.628;2023-12-22T09:00:41;1.00;1.00;1.00
46302;PMS7003;32029;51.358;5.628;2023-12-22T09:03:08;4.00;1.00;1.00
46302;PMS7003;32029;51.358;5.628;2023-12-22T09:05:34;2.00;1.00;1.00
46302;PMS7003;32029;51.358;5.628;2023-12-22T09:08:01;1.00;1.00;0.67
46302;PMS7003;32029;51.358;5.628;2023-12-22T09:10:28;2.00;1.00;1.00
46302;PMS7003;32029;51.358;5.628;2023-12-22T09:12:55;1.00;1.00;0.00
46302;PMS7003;32029;51.358;5.628;2023-12-22T09:15:21;0.67;0.67;0.00
46302;PMS7003;32029;51.358;5.628;2023-12-22T09:17:48;1.67;0.00;0.00
46302;PMS7003;32029;51.358;5.628;2023-12-22T09:20:18;0.00;0.00;0.00
46302;PMS7003;32029;51.358;5.628;2023-12-22T09:22:45;1.00;1.00;1.00
46302;PMS7003;32029;51.358;5.628;2023-12-22T09:25:11;0.00;0.00;0.00
46302;PMS7003;32029;51.358;5.628;2023-12-22T09:27:38;1.67;1.00;1.00
46302;PMS7003;32029;51.358;5.628;2023-12-22T09:30:05;1.33;1.33;1.00
46302;PMS7003;32029;51.358;5.628;2023-12-22T09:32:35;0.00;0.00;0.00
46302;PMS7003;32029;51.358;5.628;2023-12-22T09:35:04;1.00;1.00;1.00
46302;PMS7003;32029;51.358;5.628;2023-12-22T09:37:32;1.33;1.33;0.67
46302;PMS7003;32029;51.358;5.628;2023-12-22T09:39:58;1.00;1.00;1.00
46302;PMS7003;32029;51.358;5.628;2023-12-22T09:42:26;1.67;1.00;1.00
46302;PMS7003;32029;51.358;5.628;2023-12-22T09:44:53;2.00;1.00;0.00
46302;PMS7003;32029;51.358;5.628;2023-12-22T09:47:25;1.33;0.33;0.00
46302;PMS7003;32029;51.358;5.628;2023-12-22T09:49:55;0.00;0.00;0.00
46302;PMS7003;32029;51.358;5.628;2023-12-22T09:52:24;1.67;1.00;1.00
46302;PMS7003;32029;51.358;5.628;2023-12-22T09:54:53;1.00;1.00;1.00
46302;PMS7003;32029;51.358;5.628;2023-12-22T09:57:23;1.67;1.00;1.00
46302;PMS7003;32029;51.358;5.628;2023-12-22T09:59:51;5.67;0.00;0.00
46302;PMS7003;32029;51.358;5.628;2023-12-22T10:02:20;1.00;1.00;1.00
46302;PMS7003;32029;51.358;5.628;2023-12-22T10:04:48;0.00;0.00;0.00
46302;PMS7003;32029;51.358;5.628;2023-12-22T10:07:15;0.00;0.00;0.00
46302;PMS7003;32029;51.358;5.628;2023-12-22T10:09:43;1.33;0.00;0.00
46302;PMS7003;32029;51.358;5.628;2023-12-22T10:12:13;0.67;0.00;0.00
46302;PMS7003;32029;51.358;5.628;2023-12-22T10:14:41;0.00;0.00;0.00
46302;PMS7003;32029;51.358;5.628;2023-12-22T10:17:08;2.00;1.00;0.33
46302;PMS7003;32029;51.358;5.628;2023-12-22T10:19:35;0.00;0.00;0.00
46302;PMS7003;32029;51.358;5.628;2023-12-22T10:22:01;2.00;0.33;0.00
46302;PMS7003;32029;51.358;5.628;2023-12-22T10:24:41;2.00;1.00;1.00
46302;PMS7003;32029;51.358;5.628;2023-12-22T10:27:08;1.00;1.00;0.67
46302;PMS7003;32029;51.358;5.628;2023-12-22T10:29:38;0.67;0.00;0.00
46302;PMS7003;32029;51.358;5.628;2023-12-22T10:32:06;0.00;0.00;0.00
46302;PMS7003;32029;51.358;5.628;2023-12-22T10:34:34;0.33;0.33;0.00
46302;PMS7003;32029;51.358;5.628;2023-12-22T10:37:01;0.00;0.00;0.00
46302;PMS7003;32029;51.358;5.628;2023-12-22T10:39:29;0.00;0.00;0.00
46302;PMS7003;32029;51.358;5.628;2023-12-22T10:42:00;1.67;1.00;0.67
46302;PMS7003;32029;51.358;5.628;2023-12-22T10:44:27;0.33;0.00;0.00
46302;PMS7003;32029;51.358;5.628;2023-12-22T10:46:55;0.33;0.00;0.00
46302;PMS7003;32029;51.358;5.628;2023-12-22T10:49:23;1.00;0.00;0.00
46302;PMS7003;32029;51.358;5.628;2023-12-22T10:51:51;0.00;0.00;0.00
46302;PMS7003;32029;51.358;5.628;2023-12-22T10:54:19;0.00;0.00;0.00
46302;PMS7003;32029;51.358;5.628;2023-12-22T10:56:45;1.00;1.00;0.00
46302;PMS7003;32029;51.358;5.628;2023-12-22T10:59:13;0.00;0.00;0.00
46302;PMS7003;32029;51.358;5.628;2023-12-22T11:01:51;0.00;0.00;0.00
46302;PMS7003;32029;51.358;5.628;2023-12-22T11:04:18;2.00;0.00;0.00
46302;PMS7003;32029;51.358;5.628;2023-12-22T11:06:47;0.00;0.00;0.00
46302;PMS7003;32029;51.358;5.628;2023-12-22T11:09:16;1.00;1.00;1.00
46302;PMS7003;32029;51.358;5.628;2023-12-22T11:11:47;0.80;0.80;0.00
46302;PMS7003;32029;51.358;5.628;2023-12-22T11:14:15;0.00;0.00;0.00
46302;PMS7003;32029;51.358;5.628;2023-12-22T11:16:43;0.33;0.33;0.00
46302;PMS7003;32029;51.358;5.628;2023-12-22T11:19:13;2.00;1.00;0.00
46302;PMS7003;32029;51.358;5.628;2023-12-22T11:21:41;0.33;0.00;0.00
46302;PMS7003;32029;51.358;5.628;2023-12-22T11:24:10;1.00;0.00;0.00
46302;PMS7003;32029;51.358;5.628;2023-12-22T11:26:39;0.67;0.67;0.00
46302;PMS7003;32029;51.358;5.628;2023-12-22T11:29:09;1.67;0.00;0.00
46302;PMS7003;32029;51.358;5.628;2023-12-22T11:31:36;0.67;0.67;0.00
46302;PMS7003;32029;51.358;5.628;2023-12-22T11:34:05;0.00;0.00;0.00
46302;PMS7003;32029;51.358;5.628;2023-12-22T11:36:33;0.00;0.00;0.00
46302;PMS7003;32029;51.358;5.628;2023-12-22T11:39:02;3.00;0.67;0.00
46302;PMS7003;32029;51.358;5.628;2023-12-22T11:41:31;0.00;0.00;0.00
46302;PMS7003;32029;51.358;5.628;2023-12-22T11:44:02;0.00;0.00;0.00
46302;PMS7003;32029;51.358;5.628;2023-12-22T11:46:32;0.00;0.00;0.00
46302;PMS7003;32029;51.358;5.628;2023-12-22T11:49:00;0.00;0.00;0.00
46302;PMS7003;32029;51.358;5.628;2023-12-22T11:51:31;0.00;0.00;0.00
46302;PMS7003;32029;51.358;5.628;2023-12-22T11:54:00;0.00;0.00;0.00
46302;PMS7003;32029;51.358;5.628;2023-12-22T11:56:28;1.67;0.00;0.00
46302;PMS7003;32029;51.358;5.628;2023-12-22T11:58:57;0.00;0.00;0.00
46302;PMS7003;32029;51.358;5.628;2023-12-22T12:01:25;0.00;0.00;0.00
46302;PMS7003;32029;51.358;5.628;2023-12-22T12:03:58;0.00;0.00;0.00
46302;PMS7003;32029;51.358;5.628;2023-12-22T12:08:55;0.00;0.00;0.00
46302;PMS7003;32029;51.358;5.628;2023-12-22T12:11:23;0.67;0.67;0.33
46302;PMS7003;32029;51.358;5.628;2023-12-22T12:14:10;0.00;0.00;0.00
46302;PMS7003;32029;51.358;5.628;2023-12-22T12:16:40;0.00;0.00;0.00
46302;PMS7003;32029;51.358;5.628;2023-12-22T12:19:09;1.00;0.00;0.00
46302;PMS7003;32029;51.358;5.628;2023-12-22T12:21:37;2.67;0.00;0.00
46302;PMS7003;32029;51.358;5.628;2023-12-22T12:24:09;0.00;0.00;0.00
46302;PMS7003;32029;51.358;5.628;2023-12-22T12:26:35;0.00;0.00;0.00
46302;PMS7003;32029;51.358;5.628;2023-12-22T12:29:03;0.00;0.00;0.00
46302;PMS7003;32029;51.358;5.628;2023-12-22T12:31:36;0.00;0.00;0.00
46302;PMS7003;32029;51.358;5.628;2023-12-22T12:34:09;1.00;0.00;0.00
46302;PMS7003;32029;51.358;5.628;2023-12-22T12:36:37;0.00;0.00;0.00
46302;PMS7003;32029;51.358;5.628;2023-12-22T12:39:08;0.00;0.00;0.00
46302;PMS7003;32029;51.358;5.628;2023-12-22T12:41:37;0.00;0.00;0.00
46302;PMS7003;32029;51.358;5.628;2023-12-22T12:44:07;1.00;1.00;1.00
46302;PMS7003;32029;51.358;5.628;2023-12-22T12:46:39;0.00;0.00;0.00
46302;PMS7003;32029;51.358;5.628;2023-12-22T12:49:10;0.00;0.00;0.00
46302;PMS7003;32029;51.358;5.628;2023-12-22T12:51:38;2.00;1.00;1.00
46302;PMS7003;32029;51.358;5.628;2023-12-22T12:54:06;2.00;0.00;0.00
46302;PMS7003;32029;51.358;5.628;2023-12-22T12:56:43;0.00;0.00;0.00
46302;PMS7003;32029;51.358;5.628;2023-12-22T12:59:11;0.00;0.00;0.00
46302;PMS7003;32029;51.358;5.628;2023-12-22T13:01:43;0.33;0.33;0.00
46302;PMS7003;32029;51.358;5.628;2023-12-22T13:04:10;0.00;0.00;0.00
46302;PMS7003;32029;51.358;5.628;2023-12-22T13:06:45;0.00;0.00;0.00
46302;PMS7003;32029;51.358;5.628;2023-12-22T13:09:13;0.00;0.00;0.00
46302;PMS7003;32029;51.358;5.628;2023-12-22T13:11:41;1.00;1.00;0.00
46302;PMS7003;32029;51.358;5.628;2023-12-22T13:14:23;0.00;0.00;0.00
46302;PMS7003;32029;51.358;5.628;2023-12-22T13:16:56;2.67;0.00;0.00
46302;PMS7003;32029;51.358;5.628;2023-12-22T13:19:24;1.00;0.00;0.00
46302;PMS7003;32029;51.358;5.628;2023-12-22T13:21:52;0.00;0.00;0.00
46302;PMS7003;32029;51.358;5.628;2023-12-22T13:24:20;1.33;1.33;0.00
46302;PMS7003;32029;51.358;5.628;2023-12-22T13:26:57;0.00;0.00;0.00
46302;PMS7003;32029;51.358;5.628;2023-12-22T13:29:26;1.00;0.00;0.00
46302;PMS7003;32029;51.358;5.628;2023-12-22T13:31:53;0.00;0.00;0.00
46302;PMS7003;32029;51.358;5.628;2023-12-22T13:34:20;1.33;0.00;0.00
46302;PMS7003;32029;51.358;5.628;2023-12-22T13:36:48;0.00;0.00;0.00
46302;PMS7003;32029;51.358;5.628;2023-12-22T13:39:15;1.00;0.00;0.00
46302;PMS7003;32029;51.358;5.628;2023-12-22T13:41:42;1.00;0.00;0.00
46302;PMS7003;32029;51.358;5.628;2023-12-22T13:44:12;1.00;0.00;0.00
46302;PMS7003;32029;51.358;5.628;2023-12-22T13:46:39;0.67;0.67;0.00
46302;PMS7003;32029;51.358;5.628;2023-12-22T13:49:09;1.00;0.00;0.00
46302;PMS7003;32029;51.358;5.628;2023-12-22T13:51:39;2.00;1.00;0.00
46302;PMS7003;32029;51.358;5.628;2023-12-22T13:54:10;1.00;1.00;1.00
46302;PMS7003;32029;51.358;5.628;2023-12-22T13:56:38;3.40;0.00;0.00
46302;PMS7003;32029;51.358;5.628;2023-12-22T13:59:10;2.33;0.00;0.00
46302;PMS7003;32029;51.358;5.628;2023-12-22T14:01:37;0.00;0.00;0.00
46302;PMS7003;32029;51.358;5.628;2023-12-22T14:04:04;0.33;0.33;0.33
46302;PMS7003;32029;51.358;5.628;2023-12-22T14:06:31;1.00;1.00;0.00
46302;PMS7003;32029;51.358;5.628;2023-12-22T14:08:58;0.00;0.00;0.00
46302;PMS7003;32029;51.358;5.628;2023-12-22T14:11:27;1.33;0.00;0.00
46302;PMS7003;32029;51.358;5.628;2023-12-22T14:13:54;0.00;0.00;0.00
46302;PMS7003;32029;51.358;5.628;2023-12-22T14:16:22;3.00;0.00;0.00
46302;PMS7003;32029;51.358;5.628;2023-12-22T14:18:48;1.67;0.67;0.00
46302;PMS7003;32029;51.358;5.628;2023-12-22T14:21:19;1.33;1.00;0.33
46302;PMS7003;32029;51.358;5.628;2023-12-22T14:23:46;1.33;0.00;0.00
46302;PMS7003;32029;51.358;5.628;2023-12-22T14:26:12;0.00;0.00;0.00
46302;PMS7003;32029;51.358;5.628;2023-12-22T14:28:39;1.00;1.00;0.00
46302;PMS7003;32029;51.358;5.628;2023-12-22T14:31:06;1.33;0.00;0.00
46302;PMS7003;32029;51.358;5.628;2023-12-22T14:33:34;0.40;0.40;0.00